createdAt,value
2022-12-03T00:01:32.083Z,40334.78
2022-12-03T00:03:59.298Z,40266.97
2022-12-03T00:06:34.326Z,40261.00
2022-12-03T00:09:01.947Z,40308.88
2022-12-03T00:11:34.122Z,40290.91
2022-12-03T00:14:01.207Z,40189.19
2022-12-03T00:16:28.346Z,40115.41
2022-12-03T00:18:55.587Z,40145.31
2022-12-03T00:21:24.620Z,40185.22
2022-12-03T00:23:51.990Z,40179.22
2022-12-03T00:26:19.109Z,40123.38
2022-12-03T00:28:50.990Z,40195.19
2022-12-03T00:31:18.647Z,40145.31
2022-12-03T00:33:48.199Z,40161.28
2022-12-03T00:36:17.824Z,40081.50
2022-12-03T00:38:45.084Z,40009.69
2022-12-03T00:41:14.690Z,40131.34
2022-12-03T00:43:41.841Z,40163.28
2022-12-03T00:46:08.990Z,40175.25
2022-12-03T00:48:36.129Z,40193.19
2022-12-03T00:51:05.434Z,40181.22
2022-12-03T00:53:36.903Z,40153.31
2022-12-03T00:56:04.025Z,40169.25
2022-12-03T00:58:33.355Z,40123.38
2022-12-03T01:01:00.535Z,40099.44
2022-12-03T01:03:34.482Z,40121.38
2022-12-03T01:06:01.608Z,40147.31
2022-12-03T01:08:31.016Z,40161.28
2022-12-03T01:10:58.121Z,40061.56
2022-12-03T01:13:29.959Z,40019.69
2022-12-03T01:15:57.213Z,40059.56
2022-12-03T01:18:29.282Z,39981.78
2022-12-03T01:21:01.028Z,39910.00
2022-12-03T01:23:28.134Z,39985.78
2022-12-03T01:25:57.445Z,39963.84
2022-12-03T01:28:29.369Z,40005.72
2022-12-03T01:31:15.174Z,40013.69
2022-12-03T01:33:42.272Z,40095.47
2022-12-03T01:36:12.574Z,40095.47
2022-12-03T01:38:39.752Z,40041.63
2022-12-03T01:41:11.437Z,39973.81
2022-12-03T01:43:41.352Z,40035.63
2022-12-03T01:46:15.213Z,40057.56
2022-12-03T01:48:47.576Z,40051.59
2022-12-03T01:51:15.081Z,40051.59
2022-12-03T01:53:45.343Z,40033.63
2022-12-03T01:56:14.460Z,40021.66
2022-12-03T01:58:42.498Z,39977.78
2022-12-03T02:01:17.865Z,39939.91
2022-12-03T02:03:46.104Z,39971.81
2022-12-03T02:06:21.548Z,39949.88
2022-12-03T02:08:59.465Z,40015.69
2022-12-03T02:11:35.989Z,40013.69
2022-12-03T02:14:10.304Z,40029.66
2022-12-03T02:16:41.349Z,40029.66
2022-12-03T02:19:29.765Z,39965.81
2022-12-03T02:22:28.633Z,39997.75
2022-12-03T02:25:15.368Z,39951.88
2022-12-03T02:27:45.500Z,39923.94
2022-12-03T02:30:17.869Z,39886.06
2022-12-03T02:32:45.251Z,39921.94
2022-12-03T02:35:25.241Z,39858.13
2022-12-03T02:37:59.428Z,39850.16
2022-12-03T02:40:34.366Z,39832.22
2022-12-03T02:43:03.731Z,39734.50
2022-12-03T02:45:36.548Z,39760.41
2022-12-03T02:48:11.569Z,39772.38
2022-12-03T02:50:44.177Z,39816.25
2022-12-03T02:53:20.200Z,39814.25
2022-12-03T02:55:48.500Z,39782.34
2022-12-03T02:58:15.980Z,39748.44
2022-12-03T03:00:46.225Z,39770.38
2022-12-03T03:03:19.784Z,39766.41
2022-12-03T03:05:48.830Z,39748.44
2022-12-03T03:08:17.300Z,39742.47
2022-12-03T03:10:45.082Z,39806.28
2022-12-03T03:13:17.821Z,39856.13
2022-12-03T03:15:47.369Z,39818.25
2022-12-03T03:18:17.993Z,39822.25
2022-12-03T03:20:45.370Z,39820.25
2022-12-03T03:23:19.685Z,39790.34
2022-12-03T03:25:58.911Z,39818.25
2022-12-03T03:28:27.941Z,39770.38
2022-12-03T03:30:55.930Z,39738.47
2022-12-03T03:33:23.115Z,39724.53
2022-12-03T03:35:50.443Z,39722.53
2022-12-03T03:38:24.065Z,39752.44
2022-12-03T03:40:53.873Z,39660.72
2022-12-03T03:43:26.799Z,39726.50
2022-12-03T03:45:54.656Z,39694.59
2022-12-03T03:48:25.013Z,39726.50
2022-12-03T03:50:52.313Z,39696.59
2022-12-03T03:53:20.899Z,39664.69
2022-12-03T03:55:48.646Z,39622.81
2022-12-03T03:58:16.989Z,39568.97
2022-12-03T04:00:45.280Z,39650.75
2022-12-03T04:03:12.656Z,39654.72
2022-12-03T04:05:42.469Z,39672.69
2022-12-03T04:08:11.986Z,39676.66
2022-12-03T04:11:00.215Z,39668.69
2022-12-03T04:13:27.491Z,39678.66
2022-12-03T04:15:54.712Z,39648.75
2022-12-03T04:18:40.897Z,39648.75
2022-12-03T04:21:35.746Z,39680.66
2022-12-03T04:24:04.020Z,39722.53
2022-12-03T04:26:52.714Z,39728.50
2022-12-03T04:29:20.630Z,39678.66
2022-12-03T04:32:06.964Z,39716.53
2022-12-03T04:34:52.994Z,39746.47
2022-12-03T04:37:20.499Z,39804.28
2022-12-03T04:39:50.029Z,40185.22
2022-12-03T04:42:17.138Z,40183.22
2022-12-03T04:44:44.265Z,40121.38
2022-12-03T04:47:11.255Z,40149.31
2022-12-03T04:49:45.848Z,40282.94
2022-12-03T04:52:17.878Z,40366.72
2022-12-03T04:54:45.491Z,40422.56
2022-12-03T04:57:14.635Z,40462.44
2022-12-03T04:59:41.705Z,40514.31
2022-12-03T05:02:08.942Z,40602.06
2022-12-03T05:04:38.128Z,40643.97
2022-12-03T05:07:07.770Z,40883.34
2022-12-03T05:09:34.849Z,40795.56
2022-12-03T05:12:01.936Z,40406.59
2022-12-03T05:14:29.041Z,40386.66
2022-12-03T05:16:58.372Z,40376.69
2022-12-03T05:19:47.865Z,40235.06
2022-12-03T05:22:17.239Z,40227.09
2022-12-03T05:24:44.313Z,40157.28
2022-12-03T05:27:11.414Z,40153.31
2022-12-03T05:29:38.485Z,40117.41
2022-12-03T05:32:07.924Z,40067.53
2022-12-03T05:34:35.043Z,40123.38
2022-12-03T05:37:02.144Z,40051.59
2022-12-03T05:39:36.307Z,39981.78
2022-12-03T05:42:22.578Z,39957.84
2022-12-03T05:44:56.920Z,39698.59
2022-12-03T05:47:24.047Z,39355.63
2022-12-03T05:49:53.556Z,39275.88
2022-12-03T05:52:22.929Z,39299.78
2022-12-03T05:54:50.135Z,39261.91
2022-12-03T05:57:19.622Z,39303.78
2022-12-03T05:59:46.736Z,39297.78
2022-12-03T06:02:13.964Z,39327.72
2022-12-03T06:04:41.150Z,39325.72
2022-12-03T06:07:13.584Z,39319.72
2022-12-03T06:09:45.518Z,39363.59
2022-12-03T06:12:14.876Z,39399.50
2022-12-03T06:14:44.385Z,39447.34
2022-12-03T06:17:11.587Z,39457.31
2022-12-03T06:19:43.448Z,39515.13
2022-12-03T06:22:11.748Z,39541.06
2022-12-03T06:24:38.839Z,39644.75
2022-12-03T06:27:05.962Z,39642.75
2022-12-03T06:29:33.113Z,39714.56
2022-12-03T06:32:02.535Z,39702.59
2022-12-03T06:34:29.793Z,39778.38
2022-12-03T06:36:59.197Z,39846.16
2022-12-03T06:39:28.556Z,40013.69
2022-12-03T06:41:55.694Z,40081.50
2022-12-03T06:44:27.348Z,40209.16
2022-12-03T06:46:54.676Z,40219.13
2022-12-03T06:49:21.849Z,40340.78
2022-12-03T06:51:48.939Z,40123.38
2022-12-03T06:54:16.001Z,40009.69
2022-12-03T06:56:45.489Z,40031.63
2022-12-03T06:59:16.104Z,40157.28
2022-12-03T07:01:43.336Z,40151.31
2022-12-03T07:04:10.535Z,40195.19
2022-12-03T07:06:39.935Z,40201.16
2022-12-03T07:09:09.434Z,40284.94
2022-12-03T07:11:44.981Z,40261.00
2022-12-03T07:14:15.967Z,40326.81
2022-12-03T07:16:43.786Z,40382.66
2022-12-03T07:19:13.753Z,40450.47
2022-12-03T07:21:41.153Z,40552.22
2022-12-03T07:24:08.332Z,40649.94
2022-12-03T07:26:35.561Z,40649.94
2022-12-03T07:29:05.004Z,40701.81
2022-12-03T07:31:37.010Z,40695.81
2022-12-03T07:34:04.110Z,40739.72
2022-12-03T07:36:31.242Z,40757.66
2022-12-03T07:39:03.256Z,40689.84
2022-12-03T07:41:32.486Z,40727.75
2022-12-03T07:44:01.953Z,40863.38
2022-12-03T07:46:31.567Z,40845.44
2022-12-03T07:48:58.730Z,40915.25
2022-12-03T07:51:32.137Z,41034.94
2022-12-03T07:53:59.671Z,41124.72
2022-12-03T07:56:26.717Z,41204.53
2022-12-03T07:58:53.896Z,41272.38
2022-12-03T08:01:21.155Z,41292.31
2022-12-03T08:03:48.353Z,41332.22
2022-12-03T08:06:17.624Z,41394.06
2022-12-03T08:08:44.756Z,41270.38
2022-12-03T08:11:14.926Z,41491.81
2022-12-03T08:13:44.278Z,41561.66
2022-12-03T08:16:22.369Z,41557.66
2022-12-03T08:18:51.038Z,41655.44
2022-12-03T08:21:21.896Z,41765.19
2022-12-03T08:23:49.071Z,41779.16
2022-12-03T08:26:24.641Z,41900.88
2022-12-03T08:28:55.060Z,41958.75
2022-12-03T08:31:32.965Z,42116.41
2022-12-03T08:34:16.035Z,41114.75
2022-12-03T08:36:43.334Z,39441.38
2022-12-03T08:39:22.473Z,39349.63
2022-12-03T08:42:15.400Z,39455.31
2022-12-03T08:44:45.111Z,39503.19
2022-12-03T08:47:26.207Z,39529.09
2022-12-03T08:50:00.198Z,39574.97
2022-12-03T08:52:31.969Z,39547.03
2022-12-03T08:55:28.898Z,39507.16
2022-12-03T08:57:55.994Z,39445.34
2022-12-03T09:00:27.977Z,39405.47
2022-12-03T09:03:00.927Z,39403.47
2022-12-03T09:05:32.329Z,39407.47
2022-12-03T09:07:59.794Z,39421.41
2022-12-03T09:10:29.271Z,39407.47
2022-12-03T09:12:58.627Z,39345.66
2022-12-03T09:15:28.377Z,39377.56
2022-12-03T09:17:55.508Z,39387.53
2022-12-03T09:20:22.556Z,39361.59
2022-12-03T09:22:52.182Z,39377.56
2022-12-03T09:25:21.626Z,39389.53
2022-12-03T09:27:49.730Z,39381.53
2022-12-03T09:30:19.109Z,39383.53
2022-12-03T09:32:50.994Z,39369.56
2022-12-03T09:35:21.183Z,39353.63
2022-12-03T09:37:48.294Z,39379.56
2022-12-03T09:40:15.749Z,39395.50
2022-12-03T09:42:42.962Z,39359.59
2022-12-03T09:45:14.994Z,39355.63
2022-12-03T09:47:48.131Z,39377.56
2022-12-03T09:50:24.140Z,39401.47
2022-12-03T09:52:58.415Z,39379.56
2022-12-03T09:55:27.486Z,39401.47
2022-12-03T09:57:56.655Z,39423.41
2022-12-03T10:00:28.124Z,39387.53
2022-12-03T10:03:02.822Z,39393.50
2022-12-03T10:05:30.348Z,39419.44
2022-12-03T10:08:05.330Z,39419.44
2022-12-03T10:10:34.427Z,39451.34
2022-12-03T10:13:01.780Z,39447.34
2022-12-03T10:15:29.307Z,39475.25
2022-12-03T10:18:01.343Z,39555.03
2022-12-03T10:20:28.502Z,39576.97
2022-12-03T10:23:00.235Z,39606.88
2022-12-03T10:25:27.365Z,39658.72
2022-12-03T10:28:05.601Z,39682.66
2022-12-03T10:30:32.838Z,39738.47
2022-12-03T10:33:18.848Z,39718.53
2022-12-03T10:35:48.641Z,39750.44
2022-12-03T10:38:22.750Z,39736.50
2022-12-03T10:40:52.164Z,39762.41
2022-12-03T10:43:23.952Z,39732.50
2022-12-03T10:45:52.082Z,39636.78
2022-12-03T10:48:19.557Z,39602.88
2022-12-03T10:50:49.877Z,39594.91
2022-12-03T10:53:18.288Z,39563.00
2022-12-03T10:55:46.834Z,39511.16
2022-12-03T10:58:20.894Z,39515.13
2022-12-03T11:00:52.487Z,39453.31
2022-12-03T11:03:22.777Z,39453.31
2022-12-03T11:05:51.072Z,39425.41
2022-12-03T11:08:26.965Z,39431.38
2022-12-03T11:11:06.910Z,39413.44
2022-12-03T11:13:33.921Z,39403.47
2022-12-03T11:16:05.768Z,39397.50
2022-12-03T11:18:35.839Z,39425.41
2022-12-03T11:21:12.052Z,39626.81
2022-12-03T11:23:46.440Z,39784.34
2022-12-03T11:26:28.847Z,39738.47
2022-12-03T11:28:59.745Z,39965.81
2022-12-03T11:31:42.304Z,39921.94
2022-12-03T11:34:18.606Z,39834.22
2022-12-03T11:37:10.640Z,39690.63
2022-12-03T11:39:49.527Z,39606.88
2022-12-03T11:42:25.621Z,39519.13
2022-12-03T11:45:04.470Z,39509.16
2022-12-03T11:47:33.491Z,39505.16
2022-12-03T11:50:01.087Z,39505.16
2022-12-03T11:52:41.583Z,39511.16
2022-12-03T11:55:28.288Z,39523.13
2022-12-03T11:58:02.788Z,39543.06
2022-12-03T12:00:30.113Z,39553.03
2022-12-03T12:02:59.631Z,39666.69
2022-12-03T12:05:35.757Z,39686.63
2022-12-03T12:08:07.447Z,39742.47
2022-12-03T12:10:51.596Z,39626.81
2022-12-03T12:13:35.794Z,39600.88
2022-12-03T12:16:05.185Z,39551.03
2022-12-03T12:18:35.109Z,39495.19
2022-12-03T12:21:40.885Z,39471.28
2022-12-03T12:24:48.194Z,39479.25
2022-12-03T12:27:21.580Z,39477.25
2022-12-03T12:29:57.905Z,39411.44
2022-12-03T12:32:47.946Z,39435.38
2022-12-03T12:35:24.503Z,39471.28
2022-12-03T12:38:02.482Z,39449.34
2022-12-03T12:40:32.325Z,39465.28
2022-12-03T12:43:03.148Z,39539.06
2022-12-03T12:45:37.295Z,39563.00
2022-12-03T12:48:17.379Z,39598.91
2022-12-03T12:50:47.638Z,39744.47
2022-12-03T12:53:25.427Z,39884.06
2022-12-03T12:55:58.676Z,39806.28
2022-12-03T12:58:26.108Z,39752.44
2022-12-03T13:00:55.901Z,39872.09
2022-12-03T13:03:28.752Z,39987.75
2022-12-03T13:05:59.478Z,40069.53
2022-12-03T13:08:32.898Z,40237.06
2022-12-03T13:11:03.706Z,40340.78
2022-12-03T13:13:44.291Z,40452.47
2022-12-03T13:16:27.911Z,40532.25
2022-12-03T13:19:19.714Z,40538.25
2022-12-03T13:21:50.265Z,40749.69
2022-12-03T13:24:38.615Z,40805.53
2022-12-03T13:27:29.577Z,41036.94
2022-12-03T13:30:06.295Z,41288.31
2022-12-03T13:32:36.430Z,41427.97
2022-12-03T13:35:09.622Z,41398.06
2022-12-03T13:37:37.325Z,41505.78
2022-12-03T13:40:30.752Z,41579.63
2022-12-03T13:43:01.191Z,41723.28
2022-12-03T13:45:43.556Z,41759.19
2022-12-03T13:48:22.942Z,41773.16
2022-12-03T13:50:55.758Z,42064.50
2022-12-03T13:53:29.333Z,42361.88
2022-12-03T13:56:17.444Z,42371.84
2022-12-03T13:58:46.619Z,42577.41
2022-12-03T14:01:13.761Z,42703.16
2022-12-03T14:03:43.365Z,42796.97
2022-12-03T14:06:12.929Z,42779.00
2022-12-03T14:08:42.268Z,42703.16
2022-12-03T14:11:34.555Z,42571.41
2022-12-03T14:14:04.086Z,42591.38
2022-12-03T14:16:35.870Z,42743.06
2022-12-03T14:19:03.115Z,42649.25
2022-12-03T14:21:30.286Z,42779.00
2022-12-03T14:24:01.936Z,42663.22
2022-12-03T14:26:29.112Z,42697.16
2022-12-03T14:28:59.284Z,42393.78
2022-12-03T14:31:31.434Z,42138.34
2022-12-03T14:34:03.115Z,42254.09
2022-12-03T14:36:30.300Z,42056.53
2022-12-03T14:39:02.020Z,41743.25
2022-12-03T14:41:49.765Z,42162.28
2022-12-03T14:44:16.933Z,42886.78
2022-12-03T14:46:44.015Z,42914.72
2022-12-03T14:49:11.303Z,42451.66
2022-12-03T14:51:45.304Z,42509.56
2022-12-03T14:54:14.895Z,42667.22
2022-12-03T14:56:42.082Z,44448.06
2022-12-03T14:59:09.173Z,47256.97
2022-12-03T15:01:36.390Z,47460.84
2022-12-03T15:04:03.650Z,47117.09
2022-12-03T15:06:30.797Z,46807.31
2022-12-03T15:09:00.278Z,47093.09
2022-12-03T15:11:27.444Z,46669.44
2022-12-03T15:14:01.826Z,46365.72
2022-12-03T15:16:28.983Z,45836.25
2022-12-03T15:18:56.112Z,46601.50
2022-12-03T15:21:23.305Z,48636.34
2022-12-03T15:23:50.615Z,49264.22
2022-12-03T15:26:17.833Z,48820.28
2022-12-03T15:28:48.236Z,49968.22
2022-12-03T15:31:20.253Z,49434.22
2022-12-03T15:33:49.717Z,48306.44
2022-12-03T15:36:16.919Z,47540.81
2022-12-03T15:38:48.562Z,47274.97
2022-12-03T15:41:29.973Z,47155.06
2022-12-03T15:44:02.106Z,46993.16
2022-12-03T15:46:31.224Z,46669.44
2022-12-03T15:49:03.322Z,46341.72
2022-12-03T15:51:30.396Z,45982.09
2022-12-03T15:53:57.527Z,46679.44
2022-12-03T15:56:24.582Z,51236.63
2022-12-03T15:58:53.464Z,60497.91
2022-12-03T16:01:20.736Z,62810.16
2022-12-03T16:03:52.492Z,63067.16
2022-12-03T16:06:21.841Z,63067.16
2022-12-03T16:08:53.764Z,62553.16
2022-12-03T16:11:20.913Z,61268.47
2022-12-03T16:13:47.985Z,60497.91
2022-12-03T16:16:15.243Z,59214.00
2022-12-03T16:18:42.939Z,57673.97
2022-12-03T16:21:10.001Z,55621.66
2022-12-03T16:23:37.121Z,53082.06
2022-12-03T16:26:04.300Z,50660.41
2022-12-03T16:28:31.432Z,47780.66
2022-12-03T16:31:00.930Z,46373.69
2022-12-03T16:33:28.274Z,45127.09
2022-12-03T16:35:57.703Z,43874.97
2022-12-03T16:38:24.780Z,43751.19
2022-12-03T16:40:51.851Z,44116.56
2022-12-03T16:43:26.082Z,45011.25
2022-12-03T16:45:56.033Z,46975.19
2022-12-03T16:48:23.304Z,48554.34
2022-12-03T16:50:52.945Z,48710.31
2022-12-03T16:53:20.041Z,48004.56
2022-12-03T16:55:49.446Z,47608.75
2022-12-03T16:58:18.763Z,47550.78
2022-12-03T17:00:50.597Z,49006.25
2022-12-03T17:03:17.982Z,51704.91
2022-12-03T17:05:45.767Z,53826.91
2022-12-03T17:08:16.150Z,52459.47
2022-12-03T17:10:46.089Z,50912.50
2022-12-03T17:13:13.269Z,49260.22
2022-12-03T17:15:40.553Z,48224.47
2022-12-03T17:18:08.526Z,47488.84
2022-12-03T17:20:38.533Z,47374.91
2022-12-03T17:23:11.774Z,47175.03
2022-12-03T17:25:41.201Z,46773.34
2022-12-03T17:28:08.191Z,46637.47
2022-12-03T17:30:37.595Z,46121.94
2022-12-03T17:33:05.053Z,45818.25
2022-12-03T17:35:32.185Z,45482.66
2022-12-03T17:37:59.359Z,45314.84
2022-12-03T17:40:28.791Z,45490.66
2022-12-03T17:42:56.011Z,45093.16
2022-12-03T17:45:28.785Z,45414.75
2022-12-03T17:47:58.348Z,45338.84
2022-12-03T17:50:27.511Z,45037.22
2022-12-03T17:52:54.653Z,45518.59
2022-12-03T17:55:32.134Z,45730.38
2022-12-03T17:58:04.465Z,45736.34
2022-12-03T18:00:33.945Z,45910.16
2022-12-03T18:03:03.624Z,47227.00
2022-12-03T18:05:30.792Z,47972.56
2022-12-03T18:07:58.026Z,48118.50
2022-12-03T18:10:27.420Z,48688.31
2022-12-03T18:12:59.891Z,49448.22
2022-12-03T18:15:33.565Z,49570.22
2022-12-03T18:18:03.357Z,50126.25
2022-12-03T18:20:35.669Z,50342.31
2022-12-03T18:23:05.962Z,50624.38
2022-12-03T18:25:38.454Z,50246.28
2022-12-03T18:28:05.557Z,49484.22
2022-12-03T18:30:38.664Z,49794.22
2022-12-03T18:33:07.984Z,50072.25
2022-12-03T18:35:39.809Z,50170.25
2022-12-03T18:38:09.882Z,50076.25
2022-12-03T18:40:39.771Z,50142.25
2022-12-03T18:43:12.542Z,50446.31
2022-12-03T18:45:45.048Z,50166.25
2022-12-03T18:48:17.305Z,49882.22
2022-12-03T18:50:45.708Z,49652.22
2022-12-03T18:53:19.351Z,49144.22
2022-12-03T18:55:47.681Z,48816.28
2022-12-03T18:58:19.246Z,48218.47
2022-12-03T19:00:48.382Z,48196.47
2022-12-03T19:03:15.599Z,48436.38
2022-12-03T19:05:42.717Z,48176.50
2022-12-03T19:08:14.599Z,47624.75
2022-12-03T19:10:43.021Z,47386.91
2022-12-03T19:13:10.300Z,47097.09
2022-12-03T19:15:38.843Z,46865.28
2022-12-03T19:18:07.383Z,46123.94
2022-12-03T19:20:34.841Z,45830.25
2022-12-03T19:23:01.985Z,45574.53
2022-12-03T19:25:31.462Z,45143.06
2022-12-03T19:27:58.580Z,44841.50
2022-12-03T19:30:27.925Z,44929.38
2022-12-03T19:32:55.058Z,44751.63
2022-12-03T19:35:25.016Z,44503.97
2022-12-03T19:37:52.230Z,44336.22
2022-12-03T19:40:24.154Z,43880.97
2022-12-03T19:42:51.287Z,41763.19
2022-12-03T19:45:18.443Z,41226.47
2022-12-03T19:47:45.569Z,41693.34
2022-12-03T19:50:19.342Z,43238.09
2022-12-03T19:52:51.900Z,44811.53
2022-12-03T19:55:21.383Z,46315.75
2022-12-03T19:57:48.767Z,47664.72
2022-12-03T20:00:16.143Z,49248.22
2022-12-03T20:02:43.318Z,50342.31
2022-12-03T20:05:12.781Z,50754.44
2022-12-03T20:07:39.996Z,52415.44
2022-12-03T20:10:12.107Z,52565.56
2022-12-03T20:12:41.346Z,54339.59
2022-12-03T20:15:08.850Z,55108.78
2022-12-03T20:17:36.655Z,54595.97
2022-12-03T20:20:04.519Z,56647.66
2022-12-03T20:22:31.787Z,57417.38
2022-12-03T20:25:03.707Z,57930.59
2022-12-03T20:27:31.685Z,57930.59
2022-12-03T20:30:01.151Z,57930.59
2022-12-03T20:32:28.324Z,57930.59
2022-12-03T20:34:55.409Z,57160.78
2022-12-03T20:37:22.568Z,57160.78
2022-12-03T20:39:50.814Z,57160.78
2022-12-03T20:42:20.250Z,56904.22
2022-12-03T20:44:50.634Z,57673.97
2022-12-03T20:47:19.229Z,58957.28
2022-12-03T20:49:46.995Z,59727.50
2022-12-03T20:52:14.255Z,60497.91
2022-12-03T20:54:41.391Z,60754.75
2022-12-03T20:57:08.561Z,60497.91
2022-12-03T20:59:35.796Z,60497.91
2022-12-03T21:02:02.919Z,60497.91
2022-12-03T21:04:30.117Z,60754.75
2022-12-03T21:06:59.453Z,60754.75
2022-12-03T21:09:26.608Z,61011.59
2022-12-03T21:11:53.721Z,61011.59
2022-12-03T21:14:28.211Z,61782.28
2022-12-03T21:17:11.645Z,62296.19
2022-12-03T21:19:47.275Z,62553.16
2022-12-03T21:22:16.585Z,62553.16
2022-12-03T21:24:48.488Z,62810.16
2022-12-03T21:27:21.569Z,62553.16
2022-12-03T21:29:49.234Z,62296.19
2022-12-03T21:32:16.338Z,62553.16
2022-12-03T21:34:43.461Z,63067.16
2022-12-03T21:37:10.559Z,62810.16
2022-12-03T21:39:37.702Z,63324.19
2022-12-03T21:42:22.273Z,63581.25
2022-12-03T21:44:54.148Z,64095.41
2022-12-03T21:47:21.322Z,63838.31
2022-12-03T21:49:48.424Z,63838.31
2022-12-03T21:52:15.510Z,63838.31
2022-12-03T21:54:44.952Z,64095.41
2022-12-03T21:57:12.139Z,64352.53
2022-12-03T21:59:39.205Z,64866.81
2022-12-03T22:02:09.214Z,65123.97
2022-12-03T22:04:39.745Z,65123.97
2022-12-03T22:07:08.961Z,64866.81
2022-12-03T22:09:36.064Z,65123.97
2022-12-03T22:12:06.015Z,64866.81
2022-12-03T22:14:33.224Z,64866.81
2022-12-03T22:17:05.123Z,64609.66
2022-12-03T22:19:32.342Z,64866.81
2022-12-03T22:22:04.171Z,64609.66
2022-12-03T22:24:33.713Z,64352.53
2022-12-03T22:27:04.886Z,64352.53
2022-12-03T22:29:34.247Z,64352.53
2022-12-03T22:32:06.101Z,64352.53
2022-12-03T22:34:33.265Z,64352.53
2022-12-03T22:37:00.363Z,64352.53
2022-12-03T22:39:29.666Z,64609.66
2022-12-03T22:41:59.326Z,64352.53
2022-12-03T22:44:30.918Z,64609.66
2022-12-03T22:47:00.392Z,64352.53
2022-12-03T22:49:27.506Z,64352.53
2022-12-03T22:51:57.035Z,64095.41
2022-12-03T22:54:24.465Z,64095.41
2022-12-03T22:56:53.923Z,64095.41
2022-12-03T22:59:23.302Z,63838.31
2022-12-03T23:01:50.395Z,63581.25
2022-12-03T23:04:17.577Z,64095.41
2022-12-03T23:06:44.757Z,63581.25
2022-12-03T23:09:14.425Z,63581.25
2022-12-03T23:11:45.817Z,63324.19
2022-12-03T23:14:17.717Z,63067.16
2022-12-03T23:16:47.378Z,63581.25
2022-12-03T23:19:14.840Z,63067.16
2022-12-03T23:21:44.204Z,62810.16
2022-12-03T23:24:11.290Z,62296.19
2022-12-03T23:26:41.097Z,62296.19
2022-12-03T23:29:08.514Z,62553.16
2022-12-03T23:31:36.233Z,63067.16
2022-12-03T23:34:03.951Z,62810.16
2022-12-03T23:36:35.229Z,63067.16
2022-12-03T23:39:04.642Z,63324.19
2022-12-03T23:41:31.821Z,63581.25
2022-12-03T23:44:01.292Z,63324.19
2022-12-03T23:46:28.664Z,63067.16
2022-12-03T23:48:58.420Z,63067.16
2022-12-03T23:51:25.969Z,62810.16
2022-12-03T23:53:56.866Z,62553.16
2022-12-03T23:56:32.989Z,63067.16
2022-12-03T23:59:00.082Z,63067.16
